Data for 11/28/2017

Time Sea-Level Adjusted Pressure Absolute Pressure Temperature Relative Humidity Dew Point   
(mb) (inHg) (mb) (inHg) (C) (F) (%) (C) (F)
00:05 1020 30.12 849 25.07 -1.7 29 53 -10 13.9
00:10 1020 30.12 849 25.07 -1.7 29 52 -10.3 13.4
00:15 1020 30.12 849 25.07 -1.8 28.8 52 -10.5 13.2
00:20 1020 30.12 849 25.07 -1.9 28.6 52 -10.4 13.3
00:25 1020 30.12 849 25.07 -1.9 28.6 52 -10.6 12.9
00:30 1020 30.12 850 25.1 -1.9 28.5 52 -10.6 12.9
00:35 1021 30.15 850 25.1 -2 28.4 52 -10.6 12.8
00:40 1021 30.15 850 25.1 -1.9 28.6 51 -10.8 12.5
00:45 1021 30.15 850 25.1 -1.7 28.9 50 -10.8 12.5
00:50 1021 30.15 850 25.1 -1.7 29 49 -11 12.2
00:55 1021 30.15 850 25.1 -1.6 29.1 50 -10.6 12.9
01:00 1021 30.15 850 25.1 -1.9 28.5 53 -10.2 13.6
01:05 1021 30.15 850 25.1 -2.3 27.9 57 -9.6 14.7
01:10 1021 30.15 850 25.1 -2.7 27.1 59 -9.7 14.6
01:15 1021 30.15 850 25.1 -3.1 26.5 60 -9.8 14.4
01:20 1021 30.15 851 25.13 -3.1 26.5 61 -9.5 14.9
01:25 1021 30.15 851 25.13 -3 26.6 63 -9.1 15.6
01:30 1022 30.18 851 25.13 -3.2 26.2 64 -9.2 15.5
01:35 1022 30.18 851 25.13 -3.4 25.8 65 -9.1 15.6
01:40 1022 30.18 851 25.13 -3.4 25.9 64 -9.2 15.4
01:45 1022 30.18 851 25.13 -3.3 26.1 64 -9.2 15.4
01:50 1022 30.18 851 25.13 -3.4 25.9 65 -9.1 15.6
01:55 1022 30.18 851 25.13 -3.7 25.3 66 -9.1 15.6
02:00 1022 30.18 851 25.13 -3.7 25.3 66 -9.2 15.5
02:05 1022 30.18 851 25.13 -3.5 25.7 65 -9.3 15.3
02:10 1022 30.18 851 25.13 -3.4 25.9 61 -9.9 14.2
02:15 1022 30.18 851 25.13 -3.1 26.4 59 -9.9 14.1
02:20 1022 30.18 851 25.13 -3 26.6 61 -9.4 15
02:25 1022 30.18 851 25.13 -3.3 26.1 63 -9.3 15.3
02:30 1022 30.18 851 25.13 -3.6 25.5 65 -9.3 15.3
02:35 1022 30.18 851 25.13 -3.5 25.7 62 -9.8 14.4
02:40 1022 30.18 851 25.13 -3.5 25.7 63 -9.5 14.9
02:45 1022 30.18 851 25.13 -3.7 25.4 65 -9.3 15.3
02:50 1022 30.18 851 25.13 -3.9 24.9 68 -9 15.8
02:55 1022 30.18 851 25.13 -4.1 24.6 68 -9.2 15.5
03:00 1022 30.18 851 25.13 -4.2 24.4 68 -9.3 15.3
03:05 1022 30.18 851 25.13 -4.3 24.2 69 -9.1 15.5
03:10 1022 30.18 851 25.13 -4.5 24 70 -9.1 15.5
03:15 1022 30.18 851 25.13 -4.4 24 69 -9.3 15.3
03:20 1022 30.18 851 25.13 -4.3 24.3 69 -9.2 15.4
03:25 1022 30.18 851 25.13 -4.2 24.5 68 -9.2 15.4
03:30 1022 30.18 851 25.13 -4.2 24.4 68 -9.3 15.3
03:35 1022 30.18 851 25.13 -4.4 24 69 -9.4 15.1
03:40 1022 30.18 851 25.13 -4.4 24 69 -9.3 15.2
03:45 1022 30.18 851 25.13 -4.4 24 68 -9.5 15
03:50 1022 30.18 851 25.13 -4.3 24.3 67 -9.4 15
03:55 1022 30.18 851 25.13 -4.4 24 68 -9.5 14.9
04:00 1022 30.18 851 25.13 -4.6 23.8 68 -9.6 14.8
04:05 1022 30.18 851 25.13 -4.6 23.7 69 -9.4 15
04:10 1022 30.18 851 25.13 -4.8 23.5 69 -9.6 14.7
04:15 1022 30.18 851 25.13 -4.7 23.6 69 -9.6 14.7
04:20 1022 30.18 851 25.13 -4.6 23.6 68 -9.6 14.6
04:25 1022 30.18 851 25.13 -4.8 23.3 71 -9.4 15.1
04:30 1022 30.18 851 25.13 -5.2 22.6 71 -9.6 14.6
04:35 1022 30.18 851 25.13 -5.1 22.9 71 -9.6 14.7
04:40 1022 30.18 851 25.13 -5 22.9 70 -9.6 14.6
04:45 1022 30.18 851 25.13 -4.9 23.2 69 -9.7 14.6
04:50 1022 30.18 851 25.13 -4.9 23.2 70 -9.6 14.8
04:55 1022 30.18 851 25.13 -5.1 22.7 71 -9.6 14.7
05:00 1022 30.18 851 25.13 -5.2 22.6 71 -9.8 14.4
05:05 1022 30.18 852 25.16 -5 23 70 -9.6 14.7
05:10 1022 30.18 852 25.16 -5.1 22.9 71 -9.6 14.7
05:15 1022 30.18 852 25.16 -5.1 22.8 72 -9.4 15.1
05:20 1022 30.18 852 25.16 -5.4 22.2 73 -9.5 14.9
05:25 1022 30.18 852 25.16 -5.6 21.9 73 -9.7 14.6
05:30 1022 30.18 852 25.16 -5.7 21.7 73 -9.8 14.3
05:35 1022 30.18 852 25.16 -5.7 21.8 73 -9.8 14.3
05:40 1022 30.18 852 25.16 -5.8 21.6 74 -9.7 14.5
05:45 1023 30.21 852 25.16 -5.7 21.8 73 -9.8 14.4
05:50 1023 30.21 852 25.16 -5.5 22.1 72 -9.7 14.5
05:55 1023 30.21 852 25.16 -5.5 22.1 71 -10 14
06:00 1023 30.21 852 25.16 -5.4 22.2 69 -10.4 13.4
06:05 1023 30.21 852 25.16 -5.5 22 69 -10.3 13.5
06:10 1023 30.21 852 25.16 -5.7 21.8 70 -10.3 13.5
06:15 1023 30.21 852 25.16 -5.7 21.7 71 -10.1 13.7
06:20 1023 30.21 852 25.16 -5.8 21.6 72 -10 14
06:25 1023 30.21 852 25.16 -5.7 21.8 73 -9.7 14.5
06:30 1023 30.21 852 25.16 -5.7 21.8 74 -9.5 14.9
06:35 1023 30.21 852 25.16 -5.7 21.7 75 -9.5 14.9
06:40 1023 30.21 852 25.16 -5.7 21.7 74 -9.6 14.7
06:45 1023 30.21 852 25.16 -5.4 22.2 71 -9.9 14.1
06:50 1023 30.21 852 25.16 -5.2 22.7 69 -10 14
06:55 1023 30.21 852 25.16 -5 23 69 -9.8 14.4
07:00 1023 30.21 852 25.16 -5.1 22.7 70 -9.7 14.5
07:05 1023 30.21 852 25.16 -5.3 22.5 71 -9.7 14.6
07:10 1023 30.21 852 25.16 -5.4 22.2 69 -10.2 13.7
07:15 1023 30.21 852 25.16 -5.2 22.7 68 -10.1 13.8
07:20 1023 30.21 852 25.16 -4.9 23.2 66 -10.3 13.5
07:25 1023 30.21 852 25.16 -4.6 23.6 66 -10.1 13.8
07:30 1023 30.21 852 25.16 -4.4 24.1 64 -10.2 13.6
07:35 1023 30.21 852 25.16 -4.1 24.5 64 -10 13.9
07:40 1023 30.21 852 25.16 -4 24.7 65 -9.8 14.4
07:45 1023 30.21 852 25.16 -4 24.9 64 -9.7 14.5
07:50 1023 30.21 852 25.16 -3.9 25 64 -9.8 14.4
07:55 1023 30.21 852 25.16 -3.6 25.4 63 -9.7 14.5
08:00 1023 30.21 852 25.16 -3.3 26.1 62 -9.6 14.8
08:05 1023 30.21 852 25.16 -2.7 27.1 60 -9.5 15
08:10 1023 30.21 852 25.16 -2.6 27.4 60 -9.3 15.2
08:15 1023 30.21 852 25.16 -2.6 27.3 62 -9 15.7
08:20 1023 30.21 852 25.16 -2.6 27.4 62 -9 15.8
08:25 1023 30.21 852 25.16 -2.5 27.5 61 -9 15.8
08:30 1023 30.21 852 25.16 -1.8 28.8 59 -8.7 16.3
08:35 1023 30.21 852 25.16 -1.4 29.5 59 -8.5 16.8
08:40 1023 30.21 852 25.16 -1.4 29.5 58 -8.6 16.5
08:45 1023 30.21 852 25.16 -1 30.3 57 -8.6 16.6
08:50 1023 30.21 852 25.16 -0.5 31 57 -8.1 17.4
08:55 1023 30.21 852 25.16 -0.6 31 56 -8.4 17
09:00 1023 30.21 852 25.16 -0.4 31.4 53 -8.7 16.4
09:05 1023 30.21 852 25.16 -0.3 31.4 53 -8.7 16.3
09:10 1023 30.21 852 25.16 -0.4 31.3 53 -8.8 16.2
09:15 1023 30.21 852 25.16 -0 31.9 53 -8.5 16.7
09:20 1023 30.21 852 25.16 0.4 32.8 53 -8.1 17.3
09:25 1023 30.21 852 25.16 0.6 33.2 53 -7.9 17.8
09:30 1023 30.21 852 25.16 0.8 33.4 51 -8.1 17.3
09:35 1023 30.21 852 25.16 0.8 33.4 51 -8.1 17.4
09:40 1023 30.21 852 25.16 1 33.8 51 -8.1 17.4
09:45 1023 30.21 852 25.16 0.4 32.7 52 -8.5 16.8
09:50 1023 30.21 852 25.16 0.7 33.3 48 -9.1 15.6
09:55 1023 30.21 852 25.16 0.5 33 49 -9 15.7
10:00 1023 30.21 852 25.16 1 33.8 48 -8.8 16.2
10:05 1023 30.21 852 25.16 1.1 34 48 -8.8 16.2
10:10 1023 30.21 852 25.16 1.1 34.1 44 -9.7 14.5
10:15 1022 30.18 852 25.16 1.2 34.2 46 -9.3 15.3
10:20 1022 30.18 852 25.16 1.5 34.7 44 -9.3 15.2
10:25 1022 30.18 851 25.13 1.9 35.4 43 -9.5 14.8
10:30 1022 30.18 851 25.13 1.9 35.3 42 -9.9 14.2
10:35 1022 30.18 851 25.13 1.9 35.4 41 -10.1 13.8
10:40 1022 30.18 851 25.13 2.5 36.6 41 -9.3 15.2
10:45 1022 30.18 851 25.13 2.8 37 42 -8.8 16.2
10:50 1022 30.18 851 25.13 3 37.4 39 -9.5 14.8
10:55 1022 30.18 851 25.13 3 37.3 40 -9.4 15.2
11:00 1022 30.18 851 25.13 3.1 37.6 40 -9.2 15.4
11:05 1022 30.18 851 25.13 3.3 37.9 38 -9.6 14.7
11:10 1022 30.18 851 25.13 3.6 38.5 37 -9.7 14.5
11:15 1021 30.15 851 25.13 3.5 38.3 39 -9.3 15.2
11:20 1021 30.15 851 25.13 3.3 38 36 -10.3 13.5
11:25 1021 30.15 850 25.1 3.5 38.3 36 -10.2 13.6
11:30 1021 30.15 850 25.1 3.7 38.6 36 -10.2 13.6
11:35 1021 30.15 850 25.1 3.9 39 37 -9.4 15
11:40 1021 30.15 850 25.1 4.1 39.3 37 -9.4 15.1
11:45 1021 30.15 850 25.1 4 39.3 37 -9.4 15
11:50 1021 30.15 850 25.1 4.6 40.2 34 -9.8 14.3
11:55 1021 30.15 850 25.1 4.6 40.3 34 -10 13.9
12:00 1020 30.12 850 25.1 4.7 40.4 32 -10.6 12.9
12:05 1020 30.12 850 25.1 4.5 40.1 33 -10.5 13.2
12:10 1020 30.12 849 25.07 4.6 40.2 33 -10.5 13.2
12:15 1020 30.12 849 25.07 5 41 32 -10.3 13.4
12:20 1020 30.12 849 25.07 5.3 41.6 32 -9.9 14.1
12:25 1020 30.12 849 25.07 5.2 41.4 33 -10 14
12:30 1020 30.12 849 25.07 5.8 42.4 31 -10.3 13.5
12:35 1020 30.12 849 25.07 5.1 41.2 33 -9.9 14.1
12:40 1019 30.09 849 25.07 5.2 41.4 29 -11.2 11.8
12:45 1019 30.09 849 25.07 5.8 42.4 29 -10.9 12.4
12:50 1019 30.09 848 25.04 6.1 43 28 -10.9 12.3
12:55 1019 30.09 848 25.04 5.8 42.4 29 -11.2 11.9
13:00 1019 30.09 848 25.04 6.2 43.2 28 -10.9 12.4
13:05 1019 30.09 848 25.04 6.4 43.5 29 -10.5 13.1
13:10 1019 30.09 848 25.04 6.1 42.9 29 -10.6 12.9
13:15 1019 30.09 848 25.04 5.9 42.7 30 -10.5 13.1
13:20 1019 30.09 848 25.04 5.6 42.1 31 -10.2 13.7
13:25 1019 30.09 848 25.04 6.1 43 30 -10.3 13.5
13:30 1019 30.09 848 25.04 6.3 43.3 31 -9.8 14.3
13:35 1019 30.09 848 25.04 5.9 42.6 31 -9.8 14.4
13:40 1018 30.06 848 25.04 5.7 42.2 32 -9.9 14.2
13:45 1018 30.06 848 25.04 5.5 41.8 32 -10 14
13:50 1018 30.06 848 25.04 5.1 41.2 33 -9.8 14.3
13:55 1018 30.06 847 25.01 4.9 40.7 34 -9.8 14.4
14:00 1018 30.06 847 25.01 4.9 40.8 36 -8.8 16.1
14:05 1018 30.06 847 25.01 4.4 39.9 38 -8.7 16.4
14:10 1018 30.06 847 25.01 4.4 39.9 38 -8.6 16.4
14:15 1018 30.06 847 25.01 3.8 38.9 40 -8.7 16.4
14:20 1018 30.06 847 25.01 3.8 38.9 39 -9 15.8
14:25 1018 30.06 847 25.01 4.2 39.5 38 -8.9 15.9
14:30 1018 30.06 847 25.01 4 39.2 39 -8.8 16.2
14:35 1018 30.06 847 25.01 3.7 38.7 40 -8.7 16.4
14:40 1018 30.06 847 25.01 3.4 38.2 41 -8.7 16.4
14:45 1018 30.06 847 25.01 3.5 38.3 40 -8.9 16
14:50 1018 30.06 847 25.01 3.7 38.6 40 -8.7 16.4
14:55 1018 30.06 847 25.01 3.5 38.4 41 -8.5 16.8
15:00 1018 30.06 847 25.01 3.6 38.5 40 -8.7 16.4
15:05 1018 30.06 847 25.01 3.7 38.6 41 -8.5 16.7
15:10 1018 30.06 847 25.01 3.4 38.2 53 -5.2 22.7
15:15 1018 30.06 847 25.01 3.1 37.5 53 -5.5 22.1
15:20 1018 30.06 847 25.01 3.1 37.6 56 -4.8 23.4
15:25 1018 30.06 847 25.01 2.6 36.7 59 -4.6 23.6
15:30 1017 30.03 847 25.01 2.4 36.4 62 -4.2 24.5
15:35 1017 30.03 847 25.01 2.4 36.3 61 -4.5 24
15:40 1017 30.03 847 25.01 2.4 36.4 61 -4.3 24.3
15:45 1017 30.03 847 25.01 2.2 36 63 -4.2 24.5
15:50 1017 30.03 847 25.01 1.8 35.3 63 -4.5 23.9
15:55 1017 30.03 847 25.01 1.7 35.1 63 -4.5 23.9
16:00 1017 30.03 847 25.01 1.9 35.5 64 -4.2 24.5
16:05 1017 30.03 846 24.98 1.9 35.4 64 -4.2 24.4
16:10 1017 30.03 846 24.98 1.7 35.1 65 -4.1 24.5
16:15 1017 30.03 846 24.98 1.5 34.7 67 -3.9 25
16:20 1017 30.03 846 24.98 1.3 34.3 68 -4 24.8
16:25 1017 30.03 846 24.98 1.1 34 69 -3.9 24.9
16:30 1017 30.03 846 24.98 1.1 34 67 -4.3 24.3
16:35 1017 30.03 846 24.98 1.2 34.1 71 -3.5 25.7
16:40 1017 30.03 846 24.98 1.1 33.9 71 -3.5 25.6
16:45 1017 30.03 846 24.98 1 33.8 70 -3.8 25.2
16:50 1017 30.03 846 24.98 1 33.9 69 -4 24.8
16:55 1017 30.03 846 24.98 0.8 33.5 71 -3.8 25.1
17:00 1017 30.03 846 24.98 0.5 32.9 62 -5.9 21.5
17:05 1017 30.03 846 24.98 0.6 33.1 64 -5.4 22.3
17:10 1017 30.03 846 24.98 0.5 32.9 62 -5.9 21.5
17:15 1017 30.03 846 24.98 1.1 33.9 62 -5.4 22.3
17:20 1017 30.03 846 24.98 1.2 34.1 64 -4.9 23.3
17:25 1017 30.03 846 24.98 1 33.8 66 -4.7 23.6
17:30 1017 30.03 846 24.98 0.5 32.9 68 -4.7 23.5
17:35 1017 30.03 846 24.98 0.2 32.4 68 -5 23.1
17:40 1016 30 846 24.98 0.2 32.3 66 -5.4 22.3
17:45 1016 30 845 24.95 0.1 32.2 66 -5.4 22.2
17:50 1016 30 845 24.95 0.1 32.2 67 -5.3 22.5
17:55 1016 30 845 24.95 0.3 32.5 68 -5 23
18:00 1016 30 845 24.95 0.2 32.3 68 -5 23
18:05 1016 30 845 24.95 0.1 32.1 67 -5.3 22.5
18:10 1016 30 845 24.95 -0 32 68 -5.2 22.6
18:15 1016 30 845 24.95 -0 31.9 67 -5.4 22.3
18:20 1016 30 845 24.95 0.1 32.2 67 -5.3 22.4
18:25 1016 30 845 24.95 0.2 32.3 65 -5.6 21.9
18:30 1016 30 845 24.95 0 32 67 -5.4 22.3
18:35 1015 29.97 845 24.95 -0.1 31.8 65 -6 21.2
18:40 1015 29.97 845 24.95 0 32 62 -6.4 20.6
18:45 1015 29.97 844 24.92 0.1 32.2 62 -6.2 20.8
18:50 1015 29.97 844 24.92 0.1 32.1 62 -6.4 20.4
18:55 1015 29.97 844 24.92 0.1 32.2 63 -6.2 20.9
19:00 1015 29.97 844 24.92 -0 31.9 65 -5.8 21.6
19:05 1015 29.97 844 24.92 -0.3 31.4 69 -5.3 22.5
19:10 1015 29.97 844 24.92 -0.8 30.5 72 -5.4 22.4
19:15 1015 29.97 844 24.92 -0.9 30.4 71 -5.4 22.2
19:20 1014 29.94 844 24.92 -0.9 30.5 71 -5.4 22.3
19:25 1014 29.94 843 24.89 -0.8 30.6 68 -6 21.2
19:30 1014 29.94 843 24.89 -0.5 31.1 67 -6 21.2
19:35 1014 29.94 843 24.89 -0.1 31.9 62 -6.6 20.2
19:40 1014 29.94 843 24.89 0.1 32.1 62 -6.4 20.4
19:45 1014 29.94 843 24.89 0.3 32.5 56 -7.6 18.3
19:50 1014 29.94 843 24.89 0.6 33.1 54 -7.7 18.1
19:55 1014 29.94 843 24.89 0.8 33.5 53 -7.8 17.9
20:00 1014 29.94 843 24.89 0.7 33.2 55 -7.3 18.9
20:05 1014 29.94 843 24.89 0.5 32.9 55 -7.4 18.6
20:10 1014 29.94 844 24.92 0.1 32.2 62 -6.3 20.7
20:15 1014 29.94 844 24.92 -0.3 31.5 65 -6.1 21.1
20:20 1015 29.97 844 24.92 -0.8 30.6 69 -5.8 21.6
20:25 1015 29.97 844 24.92 -1.5 29.4 72 -5.8 21.5
20:30 1015 29.97 844 24.92 -1.7 28.9 73 -5.9 21.3
20:35 1015 29.97 844 24.92 -1.8 28.7 73 -6 21.2
20:40 1015 29.97 844 24.92 -2 28.4 74 -6 21.2
20:45 1015 29.97 844 24.92 -2.1 28.2 75 -6 21.3
20:50 1014 29.94 844 24.92 -2.3 27.9 75 -6.1 21
20:55 1014 29.94 844 24.92 -2.2 28.1 74 -6.3 20.7
21:00 1014 29.94 843 24.89 -1.9 28.6 72 -6.3 20.7
21:05 1014 29.94 843 24.89 -1.7 29 70 -6.5 20.3
21:10 1014 29.94 843 24.89 -1.4 29.4 68 -6.7 20
21:15 1014 29.94 843 24.89 -1.2 29.8 66 -6.7 19.9
21:20 1014 29.94 843 24.89 -1.3 29.7 67 -6.6 20
21:25 1014 29.94 843 24.89 -1.5 29.4 68 -6.5 20.2
21:30 1014 29.94 843 24.89 -1.5 29.2 68 -6.6 20.1
21:35 1014 29.94 843 24.89 -1.4 29.5 67 -6.7 19.9
21:40 1013 29.91 843 24.89 -1.2 29.9 66 -6.8 19.7
21:45 1013 29.91 843 24.89 -1.1 30 66 -6.8 19.8
21:50 1013 29.91 842 24.86 -1.1 30.1 65 -6.8 19.8
21:55 1013 29.91 842 24.86 -0.8 30.5 61 -7.4 18.6
22:00 1013 29.91 842 24.86 -0.5 31.2 59 -7.5 18.5
22:05 1013 29.91 842 24.86 -0.3 31.4 58 -7.7 18.1
22:10 1013 29.91 842 24.86 -0.2 31.7 57 -7.6 18.4
22:15 1013 29.91 842 24.86 0.2 32.3 55 -7.9 17.8
22:20 1013 29.91 842 24.86 0.5 32.8 52 -8.2 17.3
22:25 1012 29.88 842 24.86 0.4 32.8 56 -7.4 18.7
22:30 1012 29.88 841 24.83 0.4 32.8 51 -8.5 16.7
22:35 1012 29.88 841 24.83 1 33.9 50 -8.2 17.2
22:40 1012 29.88 841 24.83 1.2 34.2 47 -8.8 16.2
22:45 1012 29.88 841 24.83 1.6 34.9 46 -8.9 16
22:50 1012 29.88 841 24.83 2 35.6 44 -9.1 15.7
22:55 1013 29.91 842 24.86 2.1 35.7 44 -8.8 16.1
23:00 1013 29.91 842 24.86 2.2 35.9 45 -8.4 16.9
23:05 1013 29.91 842 24.86 2.1 35.8 47 -8.1 17.3
23:10 1012 29.88 842 24.86 2.2 36 40 -10 13.9
23:15 1013 29.91 842 24.86 2.6 36.6 46 -7.8 18
23:20 1012 29.88 842 24.86 2.1 35.8 40 -10.3 13.5
23:25 1012 29.88 842 24.86 2.8 37 39 -9.7 14.5
23:30 1012 29.88 841 24.83 2.9 37.2 42 -8.9 16
23:35 1012 29.88 842 24.86 2.8 37.1 42 -9 15.8
23:40 1012 29.88 842 24.86 3 37.4 43 -8.4 16.9
23:45 1012 29.88 842 24.86 2.7 36.9 45 -8.1 17.4
23:50 1013 29.91 842 24.86 2.4 36.4 47 -7.9 17.9
23:55 1012 29.88 842 24.86 1.7 35 52 -7 19.3
24:00 1012 29.88 842 24.86 1.2 34.2 53 -7.4 18.8